createdAt,value
2022-09-06T00:00:18.459Z,100.00
2022-09-06T00:02:47.071Z,100.00
2022-09-06T00:05:14.505Z,100.00
2022-09-06T00:07:42.265Z,100.00
2022-09-06T00:10:10.492Z,100.00
2022-09-06T00:12:38.016Z,100.00
2022-09-06T00:15:06.236Z,100.00
2022-09-06T00:17:36.158Z,100.00
2022-09-06T00:20:08.044Z,100.00
2022-09-06T00:22:35.277Z,100.00
2022-09-06T00:25:02.384Z,100.00
2022-09-06T00:27:29.535Z,100.00
2022-09-06T00:29:56.376Z,100.00
2022-09-06T00:32:26.809Z,100.00
2022-09-06T00:34:56.838Z,100.00
2022-09-06T00:37:25.279Z,100.00
2022-09-06T00:39:52.143Z,100.00
2022-09-06T00:42:19.021Z,100.00
2022-09-06T00:44:46.160Z,100.00
2022-09-06T00:47:15.633Z,100.00
2022-09-06T00:49:47.822Z,100.00
2022-09-06T00:52:17.003Z,100.00
2022-09-06T00:54:46.349Z,100.00
2022-09-06T00:57:14.405Z,100.00
2022-09-06T00:59:42.568Z,100.00
2022-09-06T01:02:12.919Z,100.00
2022-09-06T01:04:44.223Z,100.00
2022-09-06T01:07:24.000Z,100.00
2022-09-06T01:10:08.152Z,100.00
2022-09-06T01:12:44.667Z,100.00
2022-09-06T01:15:30.504Z,100.00
2022-09-06T01:18:09.362Z,100.00
2022-09-06T01:21:13.443Z,100.00
2022-09-06T01:24:26.933Z,100.00
2022-09-06T01:31:31.408Z,100.00
2022-09-06T01:34:22.760Z,100.00
2022-09-06T01:37:09.561Z,100.00
2022-09-06T01:39:39.186Z,100.00
2022-09-06T01:42:10.148Z,100.00
2022-09-06T01:44:38.356Z,100.00
2022-09-06T01:47:16.237Z,100.00
2022-09-06T01:50:05.630Z,100.00
2022-09-06T01:52:40.722Z,100.00
2022-09-06T01:55:20.480Z,100.00
2022-09-06T01:58:09.214Z,100.00
2022-09-06T02:00:45.831Z,100.00
2022-09-06T02:03:23.593Z,100.00
2022-09-06T02:05:55.972Z,100.00
2022-09-06T02:08:28.361Z,100.00
2022-09-06T02:10:59.209Z,100.00
2022-09-06T02:13:30.820Z,100.00
2022-09-06T02:16:01.974Z,100.00
2022-09-06T02:18:31.869Z,100.00
2022-09-06T02:21:03.093Z,100.00
2022-09-06T02:23:33.766Z,100.00
2022-09-06T02:26:08.095Z,100.00
2022-09-06T02:28:36.268Z,100.00
2022-09-06T02:31:12.717Z,100.00
2022-09-06T02:33:46.671Z,100.00
2022-09-06T02:36:15.452Z,100.00
2022-09-06T02:38:44.156Z,100.00
2022-09-06T02:41:12.700Z,100.00
2022-09-06T02:43:40.378Z,100.00
2022-09-06T02:46:07.507Z,100.00
2022-09-06T02:48:34.463Z,100.00
2022-09-06T02:51:04.709Z,100.00
2022-09-06T02:53:33.176Z,100.00
2022-09-06T02:56:06.625Z,100.00
2022-09-06T02:58:33.763Z,100.00
2022-09-06T03:01:01.546Z,100.00
2022-09-06T03:03:28.924Z,100.00
2022-09-06T03:06:01.436Z,100.00
2022-09-06T03:08:31.657Z,100.00
2022-09-06T03:11:00.916Z,100.00
2022-09-06T03:13:29.462Z,100.00
2022-09-06T03:15:58.915Z,100.00
2022-09-06T03:18:27.739Z,100.00
2022-09-06T03:20:57.815Z,100.00
2022-09-06T03:23:26.953Z,100.00
2022-09-06T03:25:57.888Z,100.00
2022-09-06T03:28:26.930Z,100.00
2022-09-06T03:30:56.256Z,100.00
2022-09-06T03:33:23.781Z,100.00
2022-09-06T03:35:55.919Z,100.00
2022-09-06T03:38:26.532Z,100.00
2022-09-06T03:40:55.566Z,100.00
2022-09-06T03:43:24.589Z,100.00
2022-09-06T03:45:56.823Z,100.00
2022-09-06T03:48:25.930Z,100.00
2022-09-06T03:50:57.387Z,100.00
2022-09-06T03:53:28.113Z,100.00
2022-09-06T03:55:57.125Z,100.00
2022-09-06T03:58:31.288Z,100.00
2022-09-06T04:01:08.655Z,100.00
2022-09-06T04:03:38.134Z,100.00
2022-09-06T04:06:08.143Z,100.00
2022-09-06T04:08:36.822Z,100.00
2022-09-06T04:11:04.787Z,100.00
2022-09-06T04:13:33.632Z,100.00
2022-09-06T04:16:01.567Z,100.00
2022-09-06T04:18:30.623Z,100.00
2022-09-06T04:20:59.792Z,100.00
2022-09-06T04:23:28.676Z,100.00
2022-09-06T04:25:57.654Z,100.00
2022-09-06T04:28:26.199Z,100.00
2022-09-06T04:30:54.104Z,100.00
2022-09-06T04:33:22.327Z,100.00
2022-09-06T04:35:50.990Z,100.00
2022-09-06T04:38:18.043Z,100.00
2022-09-06T04:40:45.174Z,100.00
2022-09-06T04:43:14.976Z,100.00
2022-09-06T04:45:42.967Z,100.00
2022-09-06T04:48:11.871Z,100.00
2022-09-06T04:50:38.987Z,100.00
2022-09-06T04:53:08.100Z,100.00
2022-09-06T04:55:35.643Z,100.00
2022-09-06T04:58:05.998Z,100.00
2022-09-06T05:00:34.778Z,100.00
2022-09-06T05:03:07.701Z,100.00
2022-09-06T05:05:37.896Z,100.00
2022-09-06T05:08:05.151Z,100.00
2022-09-06T05:10:35.156Z,100.00
2022-09-06T05:13:02.247Z,100.00
2022-09-06T05:15:30.616Z,100.00
2022-09-06T05:18:02.244Z,100.00
2022-09-06T05:20:29.389Z,100.00
2022-09-06T05:22:59.615Z,100.00
2022-09-06T05:25:26.928Z,100.00
2022-09-06T05:27:59.577Z,100.00
2022-09-06T05:30:30.215Z,100.00
2022-09-06T05:32:59.497Z,100.00
2022-09-06T05:35:26.864Z,100.00
2022-09-06T05:37:54.119Z,100.00
2022-09-06T05:40:21.177Z,100.00
2022-09-06T05:42:48.807Z,100.00
2022-09-06T05:45:21.656Z,100.00
2022-09-06T05:47:52.712Z,100.00
2022-09-06T05:50:20.762Z,100.00
2022-09-06T05:52:47.879Z,100.00
2022-09-06T05:55:15.092Z,100.00
2022-09-06T05:57:42.144Z,100.00
2022-09-06T06:00:13.709Z,100.00
2022-09-06T06:02:47.428Z,100.00
2022-09-06T06:05:15.205Z,100.00
2022-09-06T06:07:45.315Z,100.00
2022-09-06T06:10:12.674Z,100.00
2022-09-06T06:12:41.735Z,100.00
2022-09-06T06:15:09.435Z,100.00
2022-09-06T06:17:46.338Z,100.00
2022-09-06T06:20:13.344Z,100.00
2022-09-06T06:22:40.376Z,100.00
2022-09-06T06:25:08.157Z,100.00
2022-09-06T06:27:35.382Z,100.00
2022-09-06T06:30:05.931Z,100.00
2022-09-06T06:32:33.035Z,100.00
2022-09-06T06:35:03.116Z,100.00
2022-09-06T06:37:32.879Z,100.00
2022-09-06T06:40:00.217Z,100.00
2022-09-06T06:42:30.007Z,100.00
2022-09-06T06:45:01.511Z,100.00
2022-09-06T06:47:28.927Z,100.00
2022-09-06T06:49:56.162Z,100.00
2022-09-06T06:52:29.279Z,100.00
2022-09-06T06:54:56.639Z,100.00
2022-09-06T06:57:23.779Z,100.00
2022-09-06T06:59:51.076Z,100.00
2022-09-06T07:02:20.368Z,100.00
2022-09-06T07:04:47.655Z,100.00
2022-09-06T07:07:30.295Z,100.00
2022-09-06T07:12:50.203Z,100.00
2022-09-06T07:15:18.991Z,100.00
2022-09-06T07:17:57.913Z,100.00
2022-09-06T07:20:25.427Z,100.00
2022-09-06T07:25:56.973Z,100.00
2022-09-06T07:28:29.991Z,100.00
2022-09-06T07:31:00.829Z,100.00
2022-09-06T07:33:31.176Z,100.00
2022-09-06T07:36:00.815Z,100.00
2022-09-06T07:38:29.972Z,100.00
2022-09-06T07:41:00.827Z,100.00
2022-09-06T07:43:30.600Z,100.00
2022-09-06T07:46:02.001Z,100.00
2022-09-06T07:48:30.128Z,100.00
2022-09-06T07:51:04.285Z,100.00
2022-09-06T07:53:39.098Z,100.00
2022-09-06T07:56:11.338Z,100.00
2022-09-06T07:58:40.823Z,97.16
2022-09-06T08:01:15.562Z,96.30
2022-09-06T08:03:45.851Z,93.41
2022-09-06T08:06:13.573Z,94.90
2022-09-06T08:11:26.696Z,91.68
2022-09-06T08:13:55.208Z,87.98
2022-09-06T08:16:25.078Z,90.86
2022-09-06T08:18:58.822Z,84.18
2022-09-06T08:21:32.127Z,84.42
2022-09-06T08:24:00.750Z,78.56
2022-09-06T08:26:35.832Z,73.33
2022-09-06T08:29:21.344Z,73.63
2022-09-06T08:31:50.607Z,57.62
2022-09-06T08:34:18.129Z,43.12
2022-09-06T08:36:51.648Z,37.12
2022-09-06T08:39:21.124Z,36.73
2022-09-06T08:41:55.353Z,31.49
2022-09-06T08:47:19.395Z,29.37
2022-09-06T08:49:50.683Z,28.63
2022-09-06T08:52:45.345Z,28.18
2022-09-06T08:55:29.030Z,26.83
2022-09-06T08:58:17.803Z,27.30
2022-09-06T09:00:50.367Z,25.10
2022-09-06T09:03:25.131Z,25.58
2022-09-06T09:05:53.725Z,26.67
2022-09-06T09:08:33.058Z,25.26
2022-09-06T09:11:04.434Z,24.27
2022-09-06T09:13:39.265Z,24.34
2022-09-06T09:16:09.915Z,24.67
2022-09-06T09:18:48.509Z,24.39
2022-09-06T09:21:29.557Z,24.61
2022-09-06T09:24:02.149Z,23.89
2022-09-06T09:26:36.283Z,24.75
2022-09-06T09:29:08.319Z,24.00
2022-09-06T09:31:39.195Z,24.76
2022-09-06T09:34:10.779Z,22.92
2022-09-06T09:36:38.246Z,23.20
2022-09-06T09:39:10.348Z,23.47
2022-09-06T09:41:46.682Z,24.04
2022-09-06T09:44:24.417Z,23.23
2022-09-06T09:46:51.852Z,23.46
2022-09-06T09:49:34.619Z,23.06
2022-09-06T09:52:10.920Z,22.95
2022-09-06T09:54:49.058Z,23.51
2022-09-06T09:57:20.382Z,22.91
2022-09-06T09:59:52.586Z,23.56
2022-09-06T10:02:26.083Z,23.07
2022-09-06T10:05:10.270Z,22.58
2022-09-06T10:07:53.974Z,23.10
2022-09-06T10:10:27.448Z,22.83
2022-09-06T10:13:18.582Z,22.33
2022-09-06T10:15:48.924Z,23.20
2022-09-06T10:18:50.423Z,22.13
2022-09-06T10:21:20.161Z,21.61
2022-09-06T10:24:26.980Z,22.17
2022-09-06T10:27:00.116Z,23.21
2022-09-06T10:29:40.448Z,22.35
2022-09-06T10:32:48.896Z,21.27
2022-09-06T10:35:26.850Z,21.51
2022-09-06T10:38:19.122Z,21.27
2022-09-06T10:41:25.180Z,21.93
2022-09-06T10:44:02.688Z,22.68
2022-09-06T10:46:41.415Z,22.35
2022-09-06T10:49:25.489Z,22.21
2022-09-06T10:51:57.108Z,21.68
2022-09-06T10:54:35.747Z,21.80
2022-09-06T11:00:13.815Z,21.63
2022-09-06T11:05:45.705Z,23.13
2022-09-06T11:11:35.514Z,21.43
2022-09-06T11:14:09.780Z,21.95
2022-09-06T11:16:48.276Z,22.41
2022-09-06T11:19:39.135Z,21.94
2022-09-06T11:22:57.601Z,21.31
2022-09-06T11:25:56.916Z,21.25
2022-09-06T11:28:31.559Z,20.68
2022-09-06T11:31:04.255Z,20.86
2022-09-06T11:33:48.393Z,20.74
2022-09-06T11:36:18.877Z,20.71
2022-09-06T11:39:05.632Z,21.16
2022-09-06T11:41:35.806Z,20.95
2022-09-06T11:44:05.659Z,20.52
2022-09-06T11:46:59.798Z,20.63
2022-09-06T11:49:32.325Z,20.27
2022-09-06T11:52:02.378Z,19.86
2022-09-06T11:54:41.838Z,20.29
2022-09-06T11:57:15.254Z,19.94
2022-09-06T11:59:54.148Z,20.43
2022-09-06T12:02:41.373Z,19.71
2022-09-06T12:05:15.622Z,19.30
2022-09-06T12:08:28.540Z,18.88
2022-09-06T12:11:09.786Z,19.37
2022-09-06T12:13:57.923Z,19.06
2022-09-06T12:16:47.023Z,18.74
2022-09-06T12:19:46.641Z,18.82
2022-09-06T12:22:32.026Z,17.80
2022-09-06T12:25:00.153Z,19.16
2022-09-06T12:27:30.196Z,19.48
2022-09-06T12:30:00.258Z,19.50
2022-09-06T12:32:34.888Z,19.09
2022-09-06T12:38:02.369Z,17.59
2022-09-06T12:40:42.512Z,17.46
2022-09-06T12:43:17.215Z,18.12
2022-09-06T12:45:53.275Z,17.49
2022-09-06T12:48:31.487Z,17.32
2022-09-06T12:51:04.760Z,17.49
2022-09-06T12:53:33.082Z,17.70
2022-09-06T12:56:05.737Z,16.86
2022-09-06T12:58:33.576Z,16.67
2022-09-06T13:01:07.965Z,16.62
2022-09-06T13:03:42.360Z,16.89
2022-09-06T13:06:23.213Z,16.40
2022-09-06T13:08:58.972Z,16.05
2022-09-06T13:11:33.753Z,16.63
2022-09-06T13:14:14.282Z,16.46
2022-09-06T13:16:49.359Z,16.77
2022-09-06T13:19:18.483Z,17.45
2022-09-06T13:21:48.830Z,17.37
2022-09-06T13:24:21.609Z,18.25
2022-09-06T13:26:49.260Z,19.83
2022-09-06T13:29:26.952Z,20.33
2022-09-06T13:31:56.215Z,21.62
2022-09-06T13:34:26.070Z,22.45
2022-09-06T13:37:05.514Z,22.95
2022-09-06T13:39:38.249Z,23.19
2022-09-06T13:42:09.206Z,22.69
2022-09-06T13:44:38.059Z,22.69
2022-09-06T13:47:05.633Z,20.56
2022-09-06T13:49:37.561Z,20.08
2022-09-06T13:52:06.932Z,21.53
2022-09-06T13:54:36.385Z,22.42
2022-09-06T13:57:03.902Z,22.68
2022-09-06T13:59:33.703Z,22.72
2022-09-06T14:02:07.052Z,22.70
2022-09-06T14:04:38.472Z,23.69
2022-09-06T14:07:07.226Z,24.61
2022-09-06T14:09:36.380Z,23.66
2022-09-06T14:12:07.232Z,24.85
2022-09-06T14:14:34.666Z,24.87
2022-09-06T14:17:04.288Z,25.17
2022-09-06T14:19:31.452Z,25.54
2022-09-06T14:22:01.215Z,25.78
2022-09-06T14:24:47.909Z,25.09
2022-09-06T14:27:24.437Z,24.71
2022-09-06T14:30:03.485Z,25.22
2022-09-06T14:32:35.668Z,25.44
2022-09-06T14:35:06.133Z,27.25
2022-09-06T14:37:33.807Z,25.33
2022-09-06T14:40:02.983Z,26.62
2022-09-06T14:42:32.580Z,25.11
2022-09-06T14:45:00.378Z,27.14
2022-09-06T14:47:33.732Z,28.06
2022-09-06T14:50:04.032Z,26.78
2022-09-06T14:52:32.739Z,26.71
2022-09-06T14:55:19.657Z,27.49
2022-09-06T14:58:01.193Z,28.08
2022-09-06T15:00:32.237Z,26.93
2022-09-06T15:03:00.204Z,26.85
2022-09-06T15:05:32.763Z,27.16
2022-09-06T15:08:11.112Z,26.53
2022-09-06T15:10:43.777Z,28.30
2022-09-06T15:13:23.680Z,26.95
2022-09-06T15:15:55.958Z,29.55
2022-09-06T15:18:26.949Z,28.44
2022-09-06T15:21:15.563Z,28.91
2022-09-06T15:23:57.618Z,27.18
2022-09-06T15:26:26.976Z,28.35
2022-09-06T15:29:02.372Z,28.13
2022-09-06T15:31:37.101Z,29.79
2022-09-06T15:34:16.844Z,27.67
2022-09-06T15:36:47.571Z,28.63
2022-09-06T15:39:36.385Z,29.32
2022-09-06T15:42:05.613Z,29.54
2022-09-06T15:44:35.136Z,29.19
2022-09-06T15:47:02.935Z,30.30
2022-09-06T15:49:34.309Z,29.07
2022-09-06T15:52:03.782Z,29.80
2022-09-06T15:54:45.146Z,29.88
2022-09-06T15:57:20.740Z,30.07
2022-09-06T15:59:52.377Z,29.54
2022-09-06T16:02:19.577Z,32.02
2022-09-06T16:04:47.060Z,32.23
2022-09-06T16:07:21.687Z,33.08
2022-09-06T16:09:48.428Z,34.74
2022-09-06T16:12:17.397Z,34.86
2022-09-06T16:14:44.608Z,34.57
2022-09-06T16:17:14.605Z,34.68
2022-09-06T16:19:42.065Z,32.29
2022-09-06T16:22:19.670Z,33.35
2022-09-06T16:24:51.618Z,34.13
2022-09-06T16:27:20.726Z,34.01
2022-09-06T16:29:50.844Z,36.83
2022-09-06T16:32:31.185Z,35.86
2022-09-06T16:35:04.375Z,40.02
2022-09-06T16:37:39.018Z,39.21
2022-09-06T16:40:07.751Z,34.52
2022-09-06T16:42:36.132Z,37.69
2022-09-06T16:45:03.598Z,38.54
2022-09-06T16:47:30.984Z,38.77
2022-09-06T16:50:02.723Z,38.10
2022-09-06T16:52:35.347Z,39.61
2022-09-06T16:55:02.455Z,39.69
2022-09-06T16:57:29.884Z,41.56
2022-09-06T17:00:01.082Z,38.66
2022-09-06T17:02:34.428Z,38.94
2022-09-06T17:05:02.247Z,38.08
2022-09-06T17:07:32.718Z,37.98
2022-09-06T17:10:01.052Z,38.26
2022-09-06T17:12:28.487Z,39.38
2022-09-06T17:15:03.044Z,38.51
2022-09-06T17:17:30.491Z,39.18
2022-09-06T17:19:57.561Z,39.40
2022-09-06T17:22:24.664Z,38.89
2022-09-06T17:24:54.524Z,39.61
2022-09-06T17:27:21.417Z,40.43
2022-09-06T17:29:48.564Z,40.97
2022-09-06T17:32:16.958Z,41.72
2022-09-06T17:34:43.835Z,41.22
2022-09-06T17:37:11.102Z,41.20
2022-09-06T17:39:38.686Z,40.71
2022-09-06T17:42:06.688Z,41.39
2022-09-06T17:44:36.912Z,40.99
2022-09-06T17:47:12.934Z,41.15
2022-09-06T17:49:42.589Z,40.98
2022-09-06T17:52:10.881Z,41.03
2022-09-06T17:54:38.789Z,41.65
2022-09-06T17:57:11.285Z,42.38
2022-09-06T17:59:38.850Z,41.85
2022-09-06T18:02:16.198Z,41.78
2022-09-06T18:04:45.925Z,42.01
2022-09-06T18:07:15.734Z,42.44
2022-09-06T18:09:42.766Z,42.94
2022-09-06T18:12:16.818Z,43.39
2022-09-06T18:14:45.546Z,43.90
2022-09-06T18:17:26.022Z,44.28
2022-09-06T18:20:00.443Z,43.60
2022-09-06T18:22:28.757Z,43.45
2022-09-06T18:24:58.281Z,44.10
2022-09-06T18:27:27.275Z,43.92
2022-09-06T18:29:59.812Z,44.06
2022-09-06T18:32:27.864Z,45.91
2022-09-06T18:34:56.176Z,44.63
2022-09-06T18:37:23.285Z,45.15
2022-09-06T18:39:50.337Z,45.63
2022-09-06T18:42:19.604Z,47.87
2022-09-06T18:44:46.296Z,48.85
2022-09-06T18:47:13.239Z,46.71
2022-09-06T18:49:43.966Z,46.41
2022-09-06T18:52:12.877Z,47.90
2022-09-06T18:54:39.967Z,47.72
2022-09-06T18:57:07.283Z,47.46
2022-09-06T18:59:34.325Z,47.10
2022-09-06T19:02:04.161Z,47.48
2022-09-06T19:04:31.355Z,47.62
2022-09-06T19:07:01.283Z,48.45
2022-09-06T19:09:30.224Z,48.54
2022-09-06T19:11:57.636Z,49.16
2022-09-06T19:14:24.830Z,49.67
2022-09-06T19:16:52.197Z,49.06
2022-09-06T19:19:19.150Z,49.92
2022-09-06T19:21:46.336Z,49.61
2022-09-06T19:24:13.637Z,49.70
2022-09-06T19:26:45.126Z,50.39
2022-09-06T19:29:14.217Z,51.37
2022-09-06T19:31:41.350Z,50.13
2022-09-06T19:34:08.522Z,50.96
2022-09-06T19:36:35.741Z,51.20
2022-09-06T19:39:06.123Z,52.67
2022-09-06T19:41:36.236Z,53.60
2022-09-06T19:44:05.648Z,53.00
2022-09-06T19:46:33.225Z,51.35
2022-09-06T19:49:00.898Z,51.45
2022-09-06T19:51:28.119Z,53.78
2022-09-06T19:53:56.366Z,54.02
2022-09-06T19:56:25.659Z,53.65
2022-09-06T19:58:54.215Z,53.55
2022-09-06T20:01:23.829Z,53.51
2022-09-06T20:03:53.657Z,53.52
2022-09-06T20:06:20.915Z,53.62
2022-09-06T20:08:50.303Z,53.99
2022-09-06T20:11:21.434Z,54.07
2022-09-06T20:13:49.217Z,53.10
2022-09-06T20:16:20.471Z,54.24
2022-09-06T20:18:49.181Z,52.85
2022-09-06T20:21:17.046Z,53.95
2022-09-06T20:23:48.964Z,53.83
2022-09-06T20:26:19.534Z,52.88
2022-09-06T20:28:47.106Z,52.28
2022-09-06T20:33:47.188Z,52.44
2022-09-06T20:36:18.531Z,51.76
2022-09-06T20:38:47.665Z,51.89
2022-09-06T20:41:16.060Z,53.24
2022-09-06T20:43:43.161Z,51.90
2022-09-06T20:46:13.356Z,52.81
2022-09-06T20:48:44.673Z,52.40
2022-09-06T20:51:15.254Z,53.44
2022-09-06T20:53:43.498Z,51.58
2022-09-06T20:56:12.306Z,52.39
2022-09-06T20:58:39.908Z,51.43
2022-09-06T21:01:08.942Z,50.97
2022-09-06T21:03:38.120Z,51.93
2022-09-06T21:06:06.058Z,53.34
2022-09-06T21:08:35.075Z,52.84
2022-09-06T21:11:06.756Z,53.19
2022-09-06T21:13:34.616Z,52.92
2022-09-06T21:16:03.291Z,51.96
2022-09-06T21:18:31.110Z,52.83
2022-09-06T21:20:59.145Z,52.62
2022-09-06T21:23:27.582Z,52.69
2022-09-06T21:25:55.382Z,51.59
2022-09-06T21:28:24.420Z,51.66
2022-09-06T21:31:00.283Z,50.71
2022-09-06T21:33:27.832Z,52.73
2022-09-06T21:35:58.860Z,52.26
2022-09-06T21:38:26.688Z,52.83
2022-09-06T21:40:53.714Z,53.94
2022-09-06T21:43:20.582Z,54.14
2022-09-06T21:45:48.827Z,53.22
2022-09-06T21:48:15.743Z,53.43
2022-09-06T21:50:45.294Z,51.94
2022-09-06T21:53:12.262Z,50.66
2022-09-06T21:55:39.888Z,51.79
2022-09-06T21:58:07.492Z,50.77
2022-09-06T22:00:34.659Z,49.38
2022-09-06T22:03:03.243Z,48.66
2022-09-06T22:05:30.197Z,49.61
2022-09-06T22:07:58.474Z,51.83
2022-09-06T22:10:25.982Z,51.28
2022-09-06T22:12:52.983Z,49.20
2022-09-06T22:15:20.175Z,48.69
2022-09-06T22:17:47.042Z,48.75
2022-09-06T22:20:15.206Z,48.99
2022-09-06T22:22:41.890Z,50.79
2022-09-06T22:25:09.126Z,52.91
2022-09-06T22:27:35.997Z,57.65
2022-09-06T22:30:02.842Z,61.99
2022-09-06T22:32:29.458Z,60.90
2022-09-06T22:34:56.494Z,56.93
2022-09-06T22:37:24.653Z,60.47
2022-09-06T22:39:51.654Z,61.45
2022-09-06T22:42:18.383Z,62.49
2022-09-06T22:44:45.057Z,64.63
2022-09-06T22:47:13.257Z,67.26
2022-09-06T22:49:39.926Z,75.94
2022-09-06T22:52:06.560Z,88.43
2022-09-06T22:54:34.633Z,93.66
2022-09-06T22:57:01.344Z,100.00
2022-09-06T22:59:27.983Z,100.00
2022-09-06T23:01:54.657Z,100.00
2022-09-06T23:04:21.323Z,100.00
2022-09-06T23:06:48.088Z,100.00
2022-09-06T23:09:14.839Z,100.00
2022-09-06T23:11:42.957Z,100.00
2022-09-06T23:14:09.550Z,100.00
2022-09-06T23:16:38.889Z,100.00
2022-09-06T23:19:05.754Z,100.00
2022-09-06T23:21:32.627Z,100.00
2022-09-06T23:23:59.304Z,100.00
2022-09-06T23:26:28.848Z,100.00
2022-09-06T23:28:57.596Z,100.00
2022-09-06T23:31:26.646Z,100.00
2022-09-06T23:33:54.938Z,100.00
2022-09-06T23:36:21.925Z,100.00
2022-09-06T23:38:49.302Z,100.00
2022-09-06T23:41:16.381Z,100.00
2022-09-06T23:43:43.727Z,100.00
2022-09-06T23:46:13.597Z,95.08
2022-09-06T23:48:41.226Z,100.00
2022-09-06T23:51:08.187Z,100.00
2022-09-06T23:53:35.247Z,100.00
2022-09-06T23:56:02.491Z,100.00
2022-09-06T23:58:29.376Z,100.00
